createdAt,value
2019-01-15T00:00:21.636Z,2.93
2019-01-15T00:01:21.593Z,2.91
2019-01-15T00:02:21.601Z,2.90
2019-01-15T00:03:21.568Z,2.90
2019-01-15T00:04:21.559Z,2.91
2019-01-15T00:05:21.546Z,3.04
2019-01-15T00:06:21.573Z,2.97
2019-01-15T00:07:21.542Z,3.02
2019-01-15T00:08:21.514Z,2.89
2019-01-15T00:09:21.502Z,2.93
2019-01-15T00:10:21.506Z,2.93
2019-01-15T00:11:21.488Z,2.89
2019-01-15T00:12:21.518Z,2.97
2019-01-15T00:13:21.542Z,2.94
2019-01-15T00:14:21.453Z,3.07
2019-01-15T00:15:21.478Z,3.04
2019-01-15T00:16:21.431Z,3.04
2019-01-15T00:17:21.438Z,3.02
2019-01-15T00:18:21.410Z,3.04
2019-01-15T00:19:21.403Z,3.04
2019-01-15T00:20:21.388Z,3.02
2019-01-15T00:21:21.382Z,3.09
2019-01-15T00:22:21.410Z,3.04
2019-01-15T00:23:21.359Z,3.12
2019-01-15T00:24:21.345Z,3.14
2019-01-15T00:25:21.336Z,3.08
2019-01-15T00:26:21.326Z,3.14
2019-01-15T00:27:21.324Z,3.09
2019-01-15T00:28:21.321Z,3.14
2019-01-15T00:29:21.293Z,3.20
2019-01-15T00:30:21.284Z,3.12
2019-01-15T00:31:21.271Z,3.20
2019-01-15T00:32:21.269Z,3.20
2019-01-15T00:33:21.275Z,3.22
2019-01-15T00:34:21.254Z,3.14
2019-01-15T00:35:21.230Z,3.25
2019-01-15T00:36:21.224Z,3.18
2019-01-15T00:37:21.214Z,3.18
2019-01-15T00:38:21.242Z,3.23
2019-01-15T00:39:21.190Z,3.27
2019-01-15T00:40:21.177Z,3.23
2019-01-15T00:41:21.176Z,3.18
2019-01-15T00:42:21.153Z,3.25
2019-01-15T00:43:21.144Z,3.20
2019-01-15T00:44:21.155Z,3.15
2019-01-15T00:45:21.168Z,3.20
2019-01-15T00:46:21.116Z,3.22
2019-01-15T00:47:21.102Z,3.20
2019-01-15T00:48:21.104Z,3.26
2019-01-15T00:49:21.102Z,3.36
2019-01-15T00:50:21.075Z,3.30
2019-01-15T00:51:21.059Z,3.30
2019-01-15T00:52:21.054Z,3.35
2019-01-15T00:53:21.043Z,3.33
2019-01-15T00:54:21.073Z,3.33
2019-01-15T00:55:21.037Z,3.27
2019-01-15T00:56:21.007Z,3.30
2019-01-15T00:57:20.999Z,3.42
2019-01-15T00:58:20.986Z,3.35
2019-01-15T00:59:20.980Z,3.33
2019-01-15T01:00:20.989Z,3.36
2019-01-15T01:01:20.968Z,3.44
2019-01-15T01:02:20.946Z,3.29
2019-01-15T01:03:20.939Z,3.29
2019-01-15T01:04:20.921Z,3.26
2019-01-15T01:05:20.931Z,3.20
2019-01-15T01:06:20.904Z,3.25
2019-01-15T01:07:20.891Z,3.26
2019-01-15T01:08:20.883Z,3.33
2019-01-15T01:09:20.882Z,3.18
2019-01-15T01:10:20.881Z,3.33
2019-01-15T01:11:20.849Z,3.27
2019-01-15T01:12:22.305Z,3.30
2019-01-15T01:13:20.831Z,3.20
2019-01-15T01:14:20.819Z,3.23
2019-01-15T01:15:20.850Z,3.09
2019-01-15T01:16:20.799Z,3.22
2019-01-15T01:17:20.789Z,3.23
2019-01-15T01:18:20.776Z,3.11
2019-01-15T01:19:20.766Z,3.17
2019-01-15T01:20:20.762Z,3.11
2019-01-15T01:21:20.766Z,3.12
2019-01-15T01:22:20.752Z,3.09
2019-01-15T01:23:20.727Z,3.08
2019-01-15T01:24:20.716Z,3.08
2019-01-15T01:25:20.706Z,3.05
2019-01-15T01:26:20.712Z,3.07
2019-01-15T01:27:20.683Z,3.09
2019-01-15T01:28:20.677Z,3.04
2019-01-15T01:29:20.658Z,3.08
2019-01-15T01:30:20.651Z,3.04
2019-01-15T01:31:20.661Z,3.00
2019-01-15T01:32:20.627Z,3.04
2019-01-15T01:33:20.617Z,3.02
2019-01-15T01:34:20.609Z,3.04
2019-01-15T01:35:20.606Z,3.00
2019-01-15T01:36:20.605Z,3.04
2019-01-15T01:37:20.574Z,2.91
2019-01-15T01:38:20.566Z,2.94
2019-01-15T01:39:20.552Z,2.90
2019-01-15T01:40:20.541Z,3.00
2019-01-15T01:41:20.564Z,2.91
2019-01-15T01:42:20.520Z,2.99
2019-01-15T01:43:20.530Z,2.97
2019-01-15T01:44:20.503Z,3.04
2019-01-15T01:45:20.486Z,2.89
2019-01-15T01:46:20.503Z,2.93
2019-01-15T01:47:20.483Z,2.94
2019-01-15T01:48:20.459Z,2.90
2019-01-15T01:49:20.447Z,3.08
2019-01-15T01:50:20.437Z,3.05
2019-01-15T01:51:20.443Z,3.04
2019-01-15T01:52:20.417Z,3.04
2019-01-15T01:53:20.420Z,3.04
2019-01-15T01:54:20.396Z,3.05
2019-01-15T01:55:20.386Z,3.04
2019-01-15T01:56:20.395Z,3.02
2019-01-15T01:57:20.365Z,3.08
2019-01-15T01:58:20.351Z,3.07
2019-01-15T01:59:20.382Z,3.14
2019-01-15T02:00:20.329Z,3.09
2019-01-15T02:01:20.335Z,3.09
2019-01-15T02:02:20.307Z,3.15
2019-01-15T02:03:20.296Z,3.18
2019-01-15T02:04:20.289Z,3.12
2019-01-15T02:05:20.293Z,3.12
2019-01-15T02:06:20.280Z,3.08
2019-01-15T02:07:20.251Z,3.11
2019-01-15T02:08:20.240Z,3.14
2019-01-15T02:09:20.232Z,3.08
2019-01-15T02:10:20.264Z,3.17
2019-01-15T02:11:20.235Z,3.15
2019-01-15T02:12:20.196Z,3.20
2019-01-15T02:13:20.195Z,3.11
2019-01-15T02:14:20.174Z,3.15
2019-01-15T02:15:20.165Z,3.15
2019-01-15T02:16:20.186Z,3.15
2019-01-15T02:17:20.142Z,3.17
2019-01-15T02:18:20.132Z,3.20
2019-01-15T02:19:20.121Z,3.18
2019-01-15T02:20:20.122Z,3.15
2019-01-15T02:21:20.129Z,3.17
2019-01-15T02:22:20.093Z,3.20
2019-01-15T02:23:20.083Z,3.29
2019-01-15T02:24:20.076Z,3.25
2019-01-15T02:25:20.063Z,3.22
2019-01-15T02:26:20.064Z,3.30
2019-01-15T02:27:20.043Z,3.33
2019-01-15T02:28:20.037Z,3.29
2019-01-15T02:29:20.017Z,3.29
2019-01-15T02:30:20.010Z,3.32
2019-01-15T02:31:20.017Z,3.30
2019-01-15T02:32:19.988Z,3.30
2019-01-15T02:33:19.976Z,3.36
2019-01-15T02:34:19.980Z,3.45
2019-01-15T02:35:19.954Z,3.36
2019-01-15T02:36:19.965Z,3.33
2019-01-15T02:37:19.932Z,3.35
2019-01-15T02:38:19.939Z,3.33
2019-01-15T02:39:19.920Z,3.32
2019-01-15T02:40:19.903Z,3.51
2019-01-15T02:41:19.937Z,3.44
2019-01-15T02:42:19.881Z,3.41
2019-01-15T02:43:19.868Z,3.42
2019-01-15T02:44:19.859Z,3.48
2019-01-15T02:45:19.845Z,3.52
2019-01-15T02:46:19.845Z,3.44
2019-01-15T02:47:19.855Z,3.46
2019-01-15T02:48:19.814Z,3.48
2019-01-15T02:49:19.806Z,3.52
2019-01-15T02:50:19.801Z,3.51
2019-01-15T02:51:19.780Z,3.63
2019-01-15T02:52:19.794Z,3.55
2019-01-15T02:53:19.768Z,3.55
2019-01-15T02:54:19.750Z,3.59
2019-01-15T02:55:19.741Z,3.56
2019-01-15T02:56:19.727Z,3.59
2019-01-15T02:57:19.740Z,3.55
2019-01-15T02:58:19.704Z,3.64
2019-01-15T02:59:19.699Z,3.63
2019-01-15T03:00:19.683Z,3.59
2019-01-15T03:01:19.672Z,3.62
2019-01-15T03:02:19.690Z,3.66
2019-01-15T03:03:19.652Z,3.73
2019-01-15T03:04:19.637Z,3.63
2019-01-15T03:05:19.645Z,3.60
2019-01-15T03:06:19.632Z,3.67
2019-01-15T03:07:19.606Z,3.78
2019-01-15T03:08:19.708Z,3.73
2019-01-15T03:09:19.583Z,3.70
2019-01-15T03:10:19.580Z,3.66
2019-01-15T03:11:19.576Z,3.76
2019-01-15T03:12:19.552Z,3.72
2019-01-15T03:13:19.559Z,3.82
2019-01-15T03:14:19.547Z,3.78
2019-01-15T03:15:19.521Z,3.80
2019-01-15T03:16:19.508Z,3.80
2019-01-15T03:17:19.525Z,3.80
2019-01-15T03:18:19.509Z,3.81
2019-01-15T03:19:19.479Z,3.82
2019-01-15T03:20:19.464Z,3.84
2019-01-15T03:21:19.466Z,3.84
2019-01-15T03:22:19.445Z,3.82
2019-01-15T03:23:19.472Z,3.88
2019-01-15T03:24:19.429Z,3.88
2019-01-15T03:25:19.413Z,3.88
2019-01-15T03:26:19.420Z,3.88
2019-01-15T03:27:19.389Z,3.82
2019-01-15T03:28:19.382Z,3.78
2019-01-15T03:29:19.400Z,3.85
2019-01-15T03:30:19.364Z,3.87
2019-01-15T03:31:19.377Z,3.96
2019-01-15T03:32:19.347Z,3.81
2019-01-15T03:33:19.324Z,3.88
2019-01-15T03:34:19.330Z,3.81
2019-01-15T03:35:19.310Z,3.87
2019-01-15T03:36:19.291Z,3.81
2019-01-15T03:37:19.279Z,3.88
2019-01-15T03:38:19.268Z,3.92
2019-01-15T03:39:19.279Z,3.90
2019-01-15T03:40:19.251Z,3.92
2019-01-15T03:41:19.243Z,3.81
2019-01-15T03:42:19.230Z,3.92
2019-01-15T03:43:19.218Z,3.99
2019-01-15T03:44:19.230Z,3.99
2019-01-15T03:45:19.201Z,4.02
2019-01-15T03:46:19.183Z,3.92
2019-01-15T03:47:19.180Z,3.96
2019-01-15T03:48:19.158Z,4.03
2019-01-15T03:49:19.151Z,4.02
2019-01-15T03:50:19.161Z,4.05
2019-01-15T03:51:19.123Z,4.09
2019-01-15T03:52:19.119Z,4.06
2019-01-15T03:53:19.120Z,4.02
2019-01-15T03:54:19.090Z,4.02
2019-01-15T03:55:19.103Z,4.05
2019-01-15T03:56:19.073Z,4.05
2019-01-15T03:57:19.061Z,4.09
2019-01-15T03:58:19.048Z,4.12
2019-01-15T03:59:19.037Z,4.03
2019-01-15T04:00:19.085Z,4.02
2019-01-15T04:01:19.016Z,4.02
2019-01-15T04:02:19.012Z,4.05
2019-01-15T04:03:18.998Z,4.05
2019-01-15T04:04:18.989Z,4.08
2019-01-15T04:05:18.989Z,4.03
2019-01-15T04:06:18.976Z,4.10
2019-01-15T04:07:18.951Z,4.09
2019-01-15T04:08:18.939Z,4.05
2019-01-15T04:09:18.930Z,4.02
2019-01-15T04:10:18.940Z,4.05
2019-01-15T04:11:18.904Z,4.12
2019-01-15T04:12:18.904Z,4.17
2019-01-15T04:13:18.883Z,4.08
2019-01-15T04:14:18.870Z,4.18
2019-01-15T04:15:18.861Z,4.18
2019-01-15T04:16:18.869Z,4.18
2019-01-15T04:17:18.838Z,4.13
2019-01-15T04:18:18.840Z,4.17
2019-01-15T04:19:18.816Z,4.13
2019-01-15T04:20:18.810Z,4.18
2019-01-15T04:21:18.816Z,4.16
2019-01-15T04:22:18.785Z,4.17
2019-01-15T04:23:18.773Z,4.10
2019-01-15T04:24:18.772Z,4.12
2019-01-15T04:25:18.753Z,4.17
2019-01-15T04:26:18.757Z,4.13
2019-01-15T04:27:18.740Z,4.17
2019-01-15T04:28:18.720Z,4.17
2019-01-15T04:29:18.705Z,4.17
2019-01-15T04:30:18.713Z,4.16
2019-01-15T04:31:18.704Z,4.16
2019-01-15T04:32:18.672Z,4.20
2019-01-15T04:33:18.664Z,4.18
2019-01-15T04:34:18.652Z,4.21
2019-01-15T04:35:18.648Z,4.18
2019-01-15T04:36:18.638Z,4.23
2019-01-15T04:37:18.641Z,4.13
2019-01-15T04:38:18.617Z,4.23
2019-01-15T04:39:18.598Z,4.17
2019-01-15T04:40:18.590Z,4.20
2019-01-15T04:41:18.574Z,4.21
2019-01-15T04:42:18.591Z,4.12
2019-01-15T04:43:19.796Z,4.13
2019-01-15T04:44:18.544Z,4.18
2019-01-15T04:45:18.530Z,4.17
2019-01-15T04:46:18.520Z,4.20
2019-01-15T04:47:18.527Z,4.20
2019-01-15T04:48:18.514Z,4.24
2019-01-15T04:49:18.489Z,4.23
2019-01-15T04:50:18.475Z,4.18
2019-01-15T04:51:18.484Z,4.26
2019-01-15T04:52:18.470Z,4.18
2019-01-15T04:53:18.442Z,4.24
2019-01-15T04:54:18.439Z,4.27
2019-01-15T04:55:18.422Z,4.27
2019-01-15T04:56:18.408Z,4.34
2019-01-15T04:57:18.425Z,4.28
2019-01-15T04:58:18.398Z,4.26
2019-01-15T04:59:18.376Z,4.27
2019-01-15T05:00:18.445Z,4.30
2019-01-15T05:01:18.366Z,4.31
2019-01-15T05:02:18.342Z,4.31
2019-01-15T05:03:18.350Z,4.34
2019-01-15T05:04:18.326Z,4.35
2019-01-15T05:05:18.311Z,4.27
2019-01-15T05:06:18.298Z,4.41
2019-01-15T05:07:18.301Z,4.41
2019-01-15T05:08:18.317Z,4.38
2019-01-15T05:09:18.264Z,4.41
2019-01-15T05:10:18.256Z,4.41
2019-01-15T05:11:18.247Z,4.42
2019-01-15T05:12:18.253Z,4.39
2019-01-15T05:13:18.255Z,4.30
2019-01-15T05:14:18.212Z,4.39
2019-01-15T05:15:18.200Z,4.42
2019-01-15T05:16:18.185Z,4.36
2019-01-15T05:17:18.176Z,4.38
2019-01-15T05:18:18.179Z,4.45
2019-01-15T05:19:18.187Z,4.39
2019-01-15T05:20:18.147Z,4.42
2019-01-15T05:21:18.131Z,4.49
2019-01-15T05:22:18.130Z,4.42
2019-01-15T05:23:18.110Z,4.43
2019-01-15T05:24:18.128Z,4.31
2019-01-15T05:25:18.090Z,4.42
2019-01-15T05:26:18.085Z,4.34
2019-01-15T05:27:18.066Z,4.31
2019-01-15T05:28:18.060Z,4.43
2019-01-15T05:29:18.051Z,4.41
2019-01-15T05:30:18.058Z,4.41
2019-01-15T05:31:18.026Z,4.41
2019-01-15T05:32:18.020Z,4.38
2019-01-15T05:33:18.002Z,4.41
2019-01-15T05:34:18.058Z,4.35
2019-01-15T05:35:18.002Z,4.46
2019-01-15T05:36:17.970Z,4.31
2019-01-15T05:37:17.960Z,4.27
2019-01-15T05:38:17.979Z,4.31
2019-01-15T05:39:17.937Z,4.38
2019-01-15T05:40:17.957Z,4.42
2019-01-15T05:41:17.917Z,4.34
2019-01-15T05:42:17.903Z,4.38
2019-01-15T05:43:17.892Z,4.31
2019-01-15T05:44:17.887Z,4.38
2019-01-15T05:45:17.883Z,4.38
2019-01-15T05:46:17.880Z,4.42
2019-01-15T05:47:25.398Z,4.28
2019-01-15T05:48:17.847Z,4.36
2019-01-15T05:49:25.370Z,4.39
2019-01-15T05:50:26.577Z,4.36
2019-01-15T05:51:25.361Z,4.30
2019-01-15T05:52:25.334Z,4.26
2019-01-15T05:53:25.320Z,4.35
2019-01-15T05:54:25.317Z,4.30
2019-01-15T05:55:25.354Z,4.30
2019-01-15T05:56:26.712Z,4.36
2019-01-15T05:57:25.281Z,4.30
2019-01-15T05:58:25.275Z,4.26
2019-01-15T05:59:25.262Z,4.38
2019-01-15T06:00:25.255Z,4.34
2019-01-15T06:01:26.330Z,4.30
2019-01-15T06:02:25.233Z,4.30
2019-01-15T06:03:25.216Z,4.35
2019-01-15T06:04:25.207Z,4.34
2019-01-15T06:05:25.200Z,4.27
2019-01-15T06:06:26.435Z,4.36
2019-01-15T06:07:25.172Z,4.26
2019-01-15T06:08:26.427Z,4.27
2019-01-15T06:09:26.177Z,4.35
2019-01-15T06:10:25.141Z,4.34
2019-01-15T06:11:26.570Z,4.30
2019-01-15T06:12:27.398Z,4.35
2019-01-15T06:13:25.109Z,4.28
2019-01-15T06:14:26.363Z,4.30
2019-01-15T06:15:25.089Z,4.27
2019-01-15T06:16:26.097Z,4.27
2019-01-15T06:17:26.274Z,4.36
2019-01-15T06:18:17.518Z,4.38
2019-01-15T06:19:17.506Z,4.36
2019-01-15T06:20:17.494Z,4.39
2019-01-15T06:21:17.487Z,4.36
2019-01-15T06:22:17.499Z,4.38
2019-01-15T06:23:17.465Z,4.46
2019-01-15T06:24:17.451Z,4.48
2019-01-15T06:25:17.469Z,4.42
2019-01-15T06:26:17.430Z,4.49
2019-01-15T06:27:17.446Z,4.42
2019-01-15T06:28:17.424Z,4.42
2019-01-15T06:29:17.401Z,4.36
2019-01-15T06:30:17.389Z,4.42
2019-01-15T06:31:17.386Z,4.56
2019-01-15T06:32:17.372Z,4.45
2019-01-15T06:33:17.439Z,4.46
2019-01-15T06:34:17.350Z,4.56
2019-01-15T06:35:17.335Z,4.45
2019-01-15T06:36:17.324Z,4.56
2019-01-15T06:37:17.335Z,4.49
2019-01-15T06:38:17.305Z,4.53
2019-01-15T06:39:17.310Z,4.56
2019-01-15T06:40:17.298Z,4.45
2019-01-15T06:41:17.270Z,4.45
2019-01-15T06:42:17.258Z,4.53
2019-01-15T06:43:17.268Z,4.56
2019-01-15T06:44:17.236Z,4.49
2019-01-15T06:45:17.259Z,4.54
2019-01-15T06:46:17.219Z,4.59
2019-01-15T06:47:17.201Z,4.56
2019-01-15T06:48:17.211Z,4.53
2019-01-15T06:49:17.183Z,4.56
2019-01-15T06:50:17.267Z,4.56
2019-01-15T06:51:17.255Z,4.57
2019-01-15T06:52:17.213Z,4.60
2019-01-15T06:53:17.201Z,4.67
2019-01-15T06:54:17.126Z,4.64
2019-01-15T06:55:17.141Z,4.72
2019-01-15T06:56:17.109Z,4.69
2019-01-15T06:57:17.104Z,4.69
2019-01-15T06:58:17.102Z,4.71
2019-01-15T06:59:17.260Z,4.66
2019-01-15T07:00:17.065Z,4.75
2019-01-15T07:01:17.049Z,4.72
2019-01-15T07:02:17.064Z,4.71
2019-01-15T07:03:17.058Z,4.82
2019-01-15T07:04:17.024Z,4.77
2019-01-15T07:05:17.003Z,4.77
2019-01-15T07:06:16.995Z,4.85
2019-01-15T07:07:16.985Z,4.82
2019-01-15T07:08:16.974Z,4.77
2019-01-15T07:09:16.977Z,4.79
2019-01-15T07:10:16.953Z,4.77
2019-01-15T07:11:16.991Z,4.88
2019-01-15T07:12:16.928Z,4.82
2019-01-15T07:13:16.991Z,4.78
2019-01-15T07:14:16.948Z,4.82
2019-01-15T07:15:16.893Z,4.89
2019-01-15T07:16:16.882Z,4.86
2019-01-15T07:17:16.879Z,4.79
2019-01-15T07:18:16.863Z,4.82
2019-01-15T07:19:16.889Z,4.78
2019-01-15T07:20:16.840Z,4.77
2019-01-15T07:21:16.830Z,4.91
2019-01-15T07:22:16.829Z,4.94
2019-01-15T07:23:16.806Z,4.88
2019-01-15T07:24:16.802Z,4.97
2019-01-15T07:25:16.809Z,4.96
2019-01-15T07:26:16.817Z,4.91
2019-01-15T07:27:16.771Z,4.88
2019-01-15T07:28:16.753Z,4.91
2019-01-15T07:29:16.741Z,4.93
2019-01-15T07:30:16.749Z,4.96
2019-01-15T07:31:16.717Z,4.96
2019-01-15T07:32:16.719Z,5.00
2019-01-15T07:33:16.764Z,4.98
2019-01-15T07:34:16.819Z,4.98
2019-01-15T07:35:16.812Z,5.01
2019-01-15T07:36:16.760Z,4.97
2019-01-15T07:37:16.728Z,4.97
2019-01-15T07:38:16.718Z,5.06
2019-01-15T07:39:16.672Z,5.04
2019-01-15T07:40:16.691Z,5.06
2019-01-15T07:41:16.637Z,5.07
2019-01-15T07:42:16.660Z,5.12
2019-01-15T07:43:16.624Z,5.04
2019-01-15T07:44:16.584Z,5.09
2019-01-15T07:45:16.612Z,5.06
2019-01-15T07:46:16.872Z,5.09
2019-01-15T07:47:16.620Z,5.03
2019-01-15T07:48:16.546Z,5.04
2019-01-15T07:49:16.539Z,5.06
2019-01-15T07:50:16.575Z,5.16
2019-01-15T07:51:16.597Z,5.06
2019-01-15T07:52:16.498Z,5.06
2019-01-15T07:53:16.510Z,5.19
2019-01-15T07:54:16.530Z,5.12
2019-01-15T07:55:16.462Z,5.15
2019-01-15T07:56:16.596Z,5.19
2019-01-15T07:57:16.445Z,5.19
2019-01-15T07:58:16.444Z,5.15
2019-01-15T07:59:16.418Z,5.21
2019-01-15T08:00:16.480Z,5.27
2019-01-15T08:01:16.419Z,5.16
2019-01-15T08:02:16.413Z,5.22
2019-01-15T08:03:16.373Z,5.29
2019-01-15T08:04:16.375Z,5.40
2019-01-15T08:05:16.388Z,5.36
2019-01-15T08:06:16.384Z,5.32
2019-01-15T08:07:16.336Z,5.39
2019-01-15T08:08:16.330Z,5.37
2019-01-15T08:09:16.356Z,5.37
2019-01-15T08:10:16.305Z,5.33
2019-01-15T08:11:16.319Z,5.30
2019-01-15T08:12:16.292Z,5.39
2019-01-15T08:13:16.271Z,5.41
2019-01-15T08:14:16.260Z,5.47
2019-01-15T08:15:16.300Z,5.40
2019-01-15T08:16:16.255Z,5.40
2019-01-15T08:17:16.227Z,5.43
2019-01-15T08:18:16.214Z,5.48
2019-01-15T08:19:16.206Z,5.44
2019-01-15T08:20:16.196Z,5.43
2019-01-15T08:21:16.208Z,5.44
2019-01-15T08:22:16.178Z,5.47
2019-01-15T08:23:16.165Z,5.47
2019-01-15T08:24:16.212Z,5.52
2019-01-15T08:25:16.176Z,5.52
2019-01-15T08:26:16.187Z,5.50
2019-01-15T08:27:16.131Z,5.52
2019-01-15T08:28:16.121Z,5.57
2019-01-15T08:29:16.100Z,5.55
2019-01-15T08:30:16.084Z,5.62
2019-01-15T08:31:16.082Z,5.65
2019-01-15T08:32:16.091Z,5.62
2019-01-15T08:33:16.053Z,5.59
2019-01-15T08:34:16.073Z,5.62
2019-01-15T08:35:16.053Z,5.65
2019-01-15T08:36:16.025Z,5.62
2019-01-15T08:37:16.012Z,5.67
2019-01-15T08:38:16.073Z,5.75
2019-01-15T08:39:15.993Z,5.73
2019-01-15T08:40:15.977Z,5.70
2019-01-15T08:41:16.015Z,5.72
2019-01-15T08:42:15.962Z,5.72
2019-01-15T08:43:15.962Z,5.87
2019-01-15T08:44:19.253Z,5.73
2019-01-15T08:45:15.974Z,5.80
2019-01-15T08:46:16.221Z,5.87
2019-01-15T08:47:15.941Z,5.90
2019-01-15T08:48:15.910Z,5.85
2019-01-15T08:49:15.884Z,5.80
2019-01-15T08:50:15.869Z,5.77
2019-01-15T08:51:15.907Z,5.85
2019-01-15T08:52:15.847Z,5.80
2019-01-15T08:53:15.864Z,5.88
2019-01-15T08:54:15.825Z,5.94
2019-01-15T08:55:15.813Z,5.95
2019-01-15T08:56:15.840Z,5.88
2019-01-15T08:57:15.798Z,5.93
2019-01-15T08:58:15.833Z,5.88
2019-01-15T08:59:15.773Z,5.94
2019-01-15T09:00:15.763Z,6.00
2019-01-15T09:01:15.792Z,6.05
2019-01-15T09:02:15.738Z,6.05
2019-01-15T09:03:15.837Z,5.93
2019-01-15T09:04:15.723Z,6.02
2019-01-15T09:05:15.705Z,6.03
2019-01-15T09:06:15.697Z,6.13
2019-01-15T09:07:15.696Z,6.12
2019-01-15T09:08:15.766Z,6.15
2019-01-15T09:09:15.685Z,6.05
2019-01-15T09:10:15.649Z,6.13
2019-01-15T09:11:15.648Z,6.12
2019-01-15T09:12:15.653Z,6.08
2019-01-15T09:13:15.659Z,6.12
2019-01-15T09:14:15.608Z,6.18
2019-01-15T09:15:15.608Z,6.18
2019-01-15T09:16:15.637Z,6.19
2019-01-15T09:17:15.575Z,6.21
2019-01-15T09:18:15.569Z,6.25
2019-01-15T09:19:15.573Z,6.27
2019-01-15T09:20:15.542Z,6.25
2019-01-15T09:21:15.528Z,6.30
2019-01-15T09:22:15.560Z,6.27
2019-01-15T09:23:15.519Z,6.27
2019-01-15T09:24:15.526Z,6.28
2019-01-15T09:25:15.484Z,6.32
2019-01-15T09:26:15.489Z,6.30
2019-01-15T09:27:15.465Z,6.28
2019-01-15T09:28:15.453Z,6.31
2019-01-15T09:29:15.487Z,6.38
2019-01-15T09:30:15.480Z,6.31
2019-01-15T09:31:15.421Z,6.32
2019-01-15T09:32:15.410Z,6.46
2019-01-15T09:33:15.401Z,6.40
2019-01-15T09:34:15.406Z,6.47
2019-01-15T09:35:15.407Z,6.38
2019-01-15T09:36:15.373Z,6.42
2019-01-15T09:37:15.365Z,6.40
2019-01-15T09:38:15.344Z,6.38
2019-01-15T09:39:15.389Z,6.47
2019-01-15T09:40:15.344Z,6.55
2019-01-15T09:41:15.352Z,6.57
2019-01-15T09:42:15.301Z,6.56
2019-01-15T09:43:15.287Z,6.50
2019-01-15T09:44:15.387Z,6.53
2019-01-15T09:45:15.360Z,6.63
2019-01-15T09:46:15.261Z,6.53
2019-01-15T09:47:15.248Z,6.53
2019-01-15T09:48:15.248Z,6.55
2019-01-15T09:49:15.280Z,6.55
2019-01-15T09:50:15.213Z,6.60
2019-01-15T09:51:15.227Z,6.60
2019-01-15T09:52:20.474Z,6.50
2019-01-15T09:53:16.183Z,6.65
2019-01-15T09:54:15.172Z,6.67
2019-01-15T09:55:15.169Z,6.68
2019-01-15T09:56:15.167Z,6.60
2019-01-15T09:57:15.136Z,6.63
2019-01-15T09:58:15.124Z,6.70
2019-01-15T09:59:15.122Z,6.67
2019-01-15T10:00:15.111Z,6.65
2019-01-15T10:01:15.166Z,6.67
2019-01-15T10:02:15.081Z,6.75
2019-01-15T10:03:15.072Z,6.68
2019-01-15T10:04:15.057Z,6.64
2019-01-15T10:05:15.050Z,6.79
2019-01-15T10:06:15.060Z,6.81
2019-01-15T10:07:15.030Z,6.75
2019-01-15T10:08:15.016Z,6.78
2019-01-15T10:09:15.006Z,6.75
2019-01-15T10:10:15.002Z,6.78
2019-01-15T10:11:14.984Z,6.83
2019-01-15T10:12:14.989Z,6.81
2019-01-15T10:13:14.961Z,6.83
2019-01-15T10:14:14.950Z,6.85
2019-01-15T10:15:14.947Z,6.82
2019-01-15T10:16:14.934Z,6.92
2019-01-15T10:17:14.937Z,6.91
2019-01-15T10:18:14.907Z,6.88
2019-01-15T10:19:14.899Z,6.88
2019-01-15T10:20:14.886Z,6.88
2019-01-15T10:21:14.873Z,6.97
2019-01-15T10:22:14.884Z,6.92
2019-01-15T10:23:14.852Z,6.91
2019-01-15T10:24:14.849Z,6.99
2019-01-15T10:25:14.843Z,7.01
2019-01-15T10:26:14.822Z,7.01
2019-01-15T10:27:14.831Z,7.04
2019-01-15T10:28:15.398Z,7.04
2019-01-15T10:29:14.784Z,7.01
2019-01-15T10:30:14.779Z,7.10
2019-01-15T10:31:14.769Z,7.11
2019-01-15T10:32:14.758Z,7.10
2019-01-15T10:33:14.774Z,7.11
2019-01-15T10:34:14.731Z,7.24
2019-01-15T10:35:14.724Z,7.11
2019-01-15T10:36:14.761Z,7.26
2019-01-15T10:37:14.851Z,7.24
2019-01-15T10:38:14.709Z,7.19
2019-01-15T10:39:14.680Z,7.28
2019-01-15T10:40:14.677Z,7.33
2019-01-15T10:41:14.653Z,7.36
2019-01-15T10:42:14.647Z,7.31
2019-01-15T10:43:14.638Z,7.34
2019-01-15T10:44:14.641Z,7.25
2019-01-15T10:45:14.617Z,7.28
2019-01-15T10:46:14.605Z,7.34
2019-01-15T10:47:14.593Z,7.37
2019-01-15T10:48:14.580Z,7.36
2019-01-15T10:49:14.606Z,7.33
2019-01-15T10:50:14.589Z,7.37
2019-01-15T10:51:14.544Z,7.47
2019-01-15T10:52:14.535Z,7.44
2019-01-15T10:53:14.535Z,7.42
2019-01-15T10:54:14.531Z,7.50
2019-01-15T10:55:14.508Z,7.34
2019-01-15T10:56:14.502Z,7.46
2019-01-15T10:57:14.489Z,7.47
2019-01-15T10:58:17.737Z,7.52
2019-01-15T10:59:14.476Z,7.49
2019-01-15T11:00:14.446Z,7.50
2019-01-15T11:01:14.436Z,7.47
2019-01-15T11:02:14.426Z,7.50
2019-01-15T11:03:14.415Z,7.52
2019-01-15T11:04:14.466Z,7.58
2019-01-15T11:05:14.393Z,7.52
2019-01-15T11:06:14.399Z,7.64
2019-01-15T11:07:14.372Z,7.58
2019-01-15T11:08:14.359Z,7.58
2019-01-15T11:09:14.371Z,7.61
2019-01-15T11:10:14.338Z,7.58
2019-01-15T11:11:14.325Z,7.66
2019-01-15T11:12:14.320Z,7.68
2019-01-15T11:13:14.306Z,7.66
2019-01-15T11:14:14.373Z,7.71
2019-01-15T11:15:14.288Z,7.71
2019-01-15T11:16:14.276Z,7.74
2019-01-15T11:17:14.260Z,7.73
2019-01-15T11:18:14.257Z,7.74
2019-01-15T11:19:14.242Z,7.78
2019-01-15T11:20:14.249Z,7.77
2019-01-15T11:21:14.250Z,7.78
2019-01-15T11:22:14.251Z,7.80
2019-01-15T11:23:14.294Z,7.83
2019-01-15T11:24:14.275Z,7.83
2019-01-15T11:25:14.202Z,7.86
2019-01-15T11:26:14.170Z,7.84
2019-01-15T11:27:14.192Z,7.78
2019-01-15T11:28:14.168Z,7.80
2019-01-15T11:29:14.140Z,7.84
2019-01-15T11:30:14.158Z,7.84
2019-01-15T11:31:14.148Z,7.81
2019-01-15T11:32:14.161Z,7.84
2019-01-15T11:33:14.087Z,7.83
2019-01-15T11:34:14.086Z,7.78
2019-01-15T11:35:14.072Z,7.73
2019-01-15T11:36:14.071Z,7.81
2019-01-15T11:37:14.049Z,7.78
2019-01-15T11:38:14.032Z,7.80
2019-01-15T11:39:14.022Z,7.86
2019-01-15T11:40:14.010Z,7.81
2019-01-15T11:41:14.019Z,7.86
2019-01-15T11:42:13.995Z,7.83
2019-01-15T11:43:13.981Z,7.84
2019-01-15T11:44:13.964Z,7.86
2019-01-15T11:45:13.954Z,7.78
2019-01-15T11:46:13.969Z,7.80
2019-01-15T11:47:13.943Z,7.86
2019-01-15T11:48:13.922Z,7.87
2019-01-15T11:49:13.912Z,7.81
2019-01-15T11:50:13.900Z,7.83
2019-01-15T11:51:13.890Z,7.81
2019-01-15T11:52:13.898Z,7.81
2019-01-15T11:53:13.881Z,7.78
2019-01-15T11:54:13.891Z,7.83
2019-01-15T11:55:13.873Z,7.78
2019-01-15T11:56:13.843Z,7.77
2019-01-15T11:57:13.849Z,7.80
2019-01-15T11:58:13.816Z,7.78
2019-01-15T11:59:13.805Z,7.83
2019-01-15T12:00:13.845Z,7.87
2019-01-15T12:01:13.783Z,7.78
2019-01-15T12:02:13.772Z,7.77
2019-01-15T12:03:13.790Z,7.83
2019-01-15T12:04:13.751Z,7.84
2019-01-15T12:05:13.744Z,7.80
2019-01-15T12:06:13.728Z,7.84
2019-01-15T12:07:13.724Z,7.77
2019-01-15T12:08:13.728Z,7.80
2019-01-15T12:09:13.751Z,7.83
2019-01-15T12:10:13.694Z,7.83
2019-01-15T12:11:13.683Z,7.83
2019-01-15T12:12:13.697Z,7.84
2019-01-15T12:13:13.692Z,7.74
2019-01-15T12:14:13.644Z,7.83
2019-01-15T12:15:13.638Z,7.80
2019-01-15T12:16:13.648Z,7.80
2019-01-15T12:17:13.628Z,7.83
2019-01-15T12:18:13.603Z,7.81
2019-01-15T12:19:13.608Z,7.81
2019-01-15T12:20:13.580Z,7.80
2019-01-15T12:21:13.574Z,7.84
2019-01-15T12:22:13.554Z,7.74
2019-01-15T12:23:13.547Z,7.76
2019-01-15T12:24:13.558Z,7.69
2019-01-15T12:25:13.525Z,7.76
2019-01-15T12:26:13.511Z,7.68
2019-01-15T12:27:13.554Z,7.77
2019-01-15T12:28:13.496Z,7.77
2019-01-15T12:29:13.483Z,7.76
2019-01-15T12:30:13.491Z,7.86
2019-01-15T12:31:13.479Z,7.76
2019-01-15T12:32:13.453Z,7.94
2019-01-15T12:33:13.438Z,7.86
2019-01-15T12:34:13.433Z,7.80
2019-01-15T12:35:13.446Z,7.78
2019-01-15T12:36:13.408Z,7.83
2019-01-15T12:37:13.400Z,7.77
2019-01-15T12:38:13.388Z,7.77
2019-01-15T12:39:13.374Z,7.84
2019-01-15T12:40:13.382Z,7.83
2019-01-15T12:41:13.360Z,7.86
2019-01-15T12:42:13.344Z,7.81
2019-01-15T12:43:13.332Z,7.80
2019-01-15T12:44:13.321Z,7.74
2019-01-15T12:45:18.222Z,7.73
2019-01-15T12:46:14.301Z,7.81
2019-01-15T12:47:13.289Z,7.77
2019-01-15T12:48:13.273Z,7.86
2019-01-15T12:49:13.279Z,7.74
2019-01-15T12:50:13.272Z,7.80
2019-01-15T12:51:13.244Z,7.87
2019-01-15T12:52:13.245Z,7.77
2019-01-15T12:53:13.223Z,7.81
2019-01-15T12:54:13.209Z,7.87
2019-01-15T12:55:13.213Z,7.87
2019-01-15T12:56:13.205Z,7.86
2019-01-15T12:57:19.040Z,7.81
2019-01-15T12:58:14.210Z,7.81
2019-01-15T12:59:13.158Z,7.78
2019-01-15T13:00:13.167Z,7.86
2019-01-15T13:01:13.135Z,7.81
2019-01-15T13:02:13.125Z,7.86
2019-01-15T13:03:13.115Z,7.77
2019-01-15T13:04:13.106Z,7.81
2019-01-15T13:05:13.159Z,7.77
2019-01-15T13:06:13.076Z,7.80
2019-01-15T13:07:13.077Z,7.86
2019-01-15T13:08:13.055Z,7.81
2019-01-15T13:09:13.047Z,7.76
2019-01-15T13:10:13.038Z,7.86
2019-01-15T13:11:13.042Z,7.87
2019-01-15T13:12:13.042Z,7.81
2019-01-15T13:13:13.038Z,7.80
2019-01-15T13:14:13.034Z,7.83
2019-01-15T13:15:13.006Z,7.84
2019-01-15T13:16:12.984Z,7.83
2019-01-15T13:17:12.957Z,7.83
2019-01-15T13:18:12.953Z,7.74